This is the latest recevied weather packets stored in our database for station/object I4GOS-3. If no packets are shown the sender has not sent any weather packets the latest 1 day(s).
| Time | Temp. | Humidity | Pressure | Rain* | Wind** | Luminosity | Snow |
|---|---|---|---|---|---|---|---|
| 1778005098 | 17.22° C | 70% | 1013.2 hPa | 3.3 mm | 1.79 m/s, 139° | - | - |
| 1778004797 | 17.22° C | 71% | 1013.1 hPa | 3.56 mm | 3.58 m/s, 138° | - | - |
| 1778004497 | 17.22° C | 72% | 1013.1 hPa | 3.81 mm | 2.24 m/s, 143° | - | - |
| 1778004197 | 17.22° C | 72% | 1013 hPa | 3.3 mm | 4.02 m/s, 135° | - | - |
| 1778003597 | 17.78° C | 73% | 1013 hPa | 3.05 mm | 1.34 m/s, 157° | - | - |
| 1778003295 | 17.78° C | 74% | 1013 hPa | 2.29 mm | 1.34 m/s, 159° | - | - |
| 1778002995 | 17.78° C | 74% | 1012.9 hPa | 2.03 mm | 2.68 m/s, 142° | - | - |
| 1778002691 | 17.78° C | 74% | 1012.9 hPa | 1.78 mm | 0.45 m/s, 160° | - | - |
| 1778002391 | 17.78° C | 74% | 1012.9 hPa | 0 mm | 1.79 m/s, 147° | - | - |
| 1778001788 | 17.78° C | 74% | 1012.8 hPa | 0 mm | 2.68 m/s, 139° | - | - |
| 1778001487 | 18.33° C | 74% | 1012.8 hPa | 0 mm | 1.79 m/s, 139° | - | - |
| 1778001187 | 18.33° C | 74% | 1012.8 hPa | 0 mm | 3.13 m/s, 169° | - | - |
| 1778000886 | 18.33° C | 74% | 1012.7 hPa | 0 mm | 3.13 m/s, 144° | - | - |
| 1778000586 | 18.33° C | 74% | 1012.6 hPa | 0 mm | 0.89 m/s, 171° | - | - |
| 1778000286 | 18.33° C | 74% | 1012.5 hPa | 0 mm | 1.79 m/s, 158° | - | - |
| 1777999986 | 18.33° C | 73% | 1012.4 hPa | 0 mm | 3.13 m/s, 131° | - | - |
| 1777999685 | 18.33° C | 73% | 1012.3 hPa | 0 mm | 4.02 m/s, 147° | - | - |
| 1777999385 | 18.89° C | 72% | 1012.3 hPa | 0 mm | 3.13 m/s, 149° | - | - |
| 1777999085 | 18.89° C | 72% | 1012.3 hPa | 0 mm | 2.24 m/s, 156° | - | - |
| 1777998785 | 18.89° C | 71% | 1012.4 hPa | 0 mm | 3.13 m/s, 147° | - | - |
| 1777998484 | 19.44° C | 71% | 1012.5 hPa | 0 mm | 0.89 m/s, 160° | - | - |
| 1777998184 | 19.44° C | 69% | 1012.5 hPa | 0 mm | 4.02 m/s, 141° | - | - |
| 1777997884 | 19.44° C | 69% | 1012.5 hPa | 0 mm | 4.02 m/s, 136° | - | - |
| 1777997584 | 19.44° C | 69% | 1012.6 hPa | 0 mm | 3.13 m/s, 137° | - | - |
| 1777997284 | 19.44° C | 68% | 1012.5 hPa | 0 mm | 4.47 m/s, 143° | - | - |
* Rain latest hour (hover to see other rain measurements)
** Current wind speed in m/s (hover to see current wind gust speed)